sensor_id;sensor_type;location;lat;lon;timestamp;P1;durP1;ratioP1;P2;durP2;ratioP2
37288;SDS011;23174;49.462;11.000;2023-12-29T00:01:38;3.17;;;1.60;;
37288;SDS011;23174;49.462;11.000;2023-12-29T00:03:38;1.40;;;1.30;;
37288;SDS011;23174;49.462;11.000;2023-12-29T00:05:39;2.25;;;1.10;;
37288;SDS011;23174;49.462;11.000;2023-12-29T00:07:39;1.90;;;1.27;;
37288;SDS011;23174;49.462;11.000;2023-12-29T00:09:40;1.73;;;1.45;;
37288;SDS011;23174;49.462;11.000;2023-12-29T00:11:40;1.85;;;1.50;;
37288;SDS011;23174;49.462;11.000;2023-12-29T00:13:41;1.95;;;1.52;;
37288;SDS011;23174;49.462;11.000;2023-12-29T00:15:41;1.30;;;1.20;;
37288;SDS011;23174;49.462;11.000;2023-12-29T00:17:42;1.55;;;1.30;;
37288;SDS011;23174;49.462;11.000;2023-12-29T00:19:43;1.35;;;1.25;;
37288;SDS011;23174;49.462;11.000;2023-12-29T00:21:43;1.75;;;1.55;;
37288;SDS011;23174;49.462;11.000;2023-12-29T00:23:44;1.30;;;1.20;;
37288;SDS011;23174;49.462;11.000;2023-12-29T00:25:44;1.00;;;0.98;;
37288;SDS011;23174;49.462;11.000;2023-12-29T00:27:45;1.40;;;1.30;;
37288;SDS011;23174;49.462;11.000;2023-12-29T00:29:45;1.08;;;1.02;;
37288;SDS011;23174;49.462;11.000;2023-12-29T00:31:45;1.70;;;1.50;;
37288;SDS011;23174;49.462;11.000;2023-12-29T00:33:46;1.38;;;1.17;;
37288;SDS011;23174;49.462;11.000;2023-12-29T00:35:46;2.45;;;1.40;;
37288;SDS011;23174;49.462;11.000;2023-12-29T00:37:47;1.50;;;1.10;;
37288;SDS011;23174;49.462;11.000;2023-12-29T00:39:49;2.25;;;1.58;;
37288;SDS011;23174;49.462;11.000;2023-12-29T00:41:51;1.35;;;1.25;;
37288;SDS011;23174;49.462;11.000;2023-12-29T00:43:51;1.13;;;1.02;;
37288;SDS011;23174;49.462;11.000;2023-12-29T00:45:52;1.40;;;1.23;;
37288;SDS011;23174;49.462;11.000;2023-12-29T00:47:52;2.00;;;1.48;;
37288;SDS011;23174;49.462;11.000;2023-12-29T00:49:53;1.30;;;1.20;;
37288;SDS011;23174;49.462;11.000;2023-12-29T00:51:53;1.38;;;1.27;;
37288;SDS011;23174;49.462;11.000;2023-12-29T00:53:54;1.90;;;1.33;;
37288;SDS011;23174;49.462;11.000;2023-12-29T00:55:54;1.30;;;1.13;;
37288;SDS011;23174;49.462;11.000;2023-12-29T00:57:55;1.13;;;1.02;;
37288;SDS011;23174;49.462;11.000;2023-12-29T00:59:55;1.48;;;1.38;;
37288;SDS011;23174;49.462;11.000;2023-12-29T01:01:56;1.35;;;1.20;;
37288;SDS011;23174;49.462;11.000;2023-12-29T01:03:56;1.55;;;1.20;;
37288;SDS011;23174;49.462;11.000;2023-12-29T01:05:57;1.30;;;1.20;;
37288;SDS011;23174;49.462;11.000;2023-12-29T01:07:57;2.10;;;1.10;;
37288;SDS011;23174;49.462;11.000;2023-12-29T01:09:58;4.78;;;1.10;;
37288;SDS011;23174;49.462;11.000;2023-12-29T01:11:59;1.85;;;1.45;;
37288;SDS011;23174;49.462;11.000;2023-12-29T01:14:00;1.17;;;1.08;;
37288;SDS011;23174;49.462;11.000;2023-12-29T01:16:00;1.10;;;1.00;;
37288;SDS011;23174;49.462;11.000;2023-12-29T01:18:00;4.88;;;1.95;;
37288;SDS011;23174;49.462;11.000;2023-12-29T01:20:01;1.60;;;1.50;;
37288;SDS011;23174;49.462;11.000;2023-12-29T01:22:04;1.42;;;1.20;;
37288;SDS011;23174;49.462;11.000;2023-12-29T01:24:04;1.92;;;1.75;;
37288;SDS011;23174;49.462;11.000;2023-12-29T01:26:07;1.45;;;1.35;;
37288;SDS011;23174;49.462;11.000;2023-12-29T01:28:07;1.88;;;1.52;;
37288;SDS011;23174;49.462;11.000;2023-12-29T01:30:08;1.35;;;1.25;;
37288;SDS011;23174;49.462;11.000;2023-12-29T01:32:08;2.25;;;1.63;;
37288;SDS011;23174;49.462;11.000;2023-12-29T01:34:10;1.52;;;1.42;;
37288;SDS011;23174;49.462;11.000;2023-12-29T01:36:16;1.40;;;1.30;;
37288;SDS011;23174;49.462;11.000;2023-12-29T01:38:18;1.65;;;1.55;;
37288;SDS011;23174;49.462;11.000;2023-12-29T01:40:19;1.75;;;1.17;;
37288;SDS011;23174;49.462;11.000;2023-12-29T01:42:19;2.03;;;1.35;;
37288;SDS011;23174;49.462;11.000;2023-12-29T01:44:20;2.15;;;1.60;;
37288;SDS011;23174;49.462;11.000;2023-12-29T01:46:21;1.45;;;1.35;;
37288;SDS011;23174;49.462;11.000;2023-12-29T01:48:25;2.30;;;1.20;;
37288;SDS011;23174;49.462;11.000;2023-12-29T01:50:26;1.50;;;1.40;;
37288;SDS011;23174;49.462;11.000;2023-12-29T01:52:26;1.90;;;1.20;;
37288;SDS011;23174;49.462;11.000;2023-12-29T01:54:27;2.30;;;0.90;;
37288;SDS011;23174;49.462;11.000;2023-12-29T01:56:30;1.27;;;1.17;;
37288;SDS011;23174;49.462;11.000;2023-12-29T01:58:31;1.52;;;1.42;;
37288;SDS011;23174;49.462;11.000;2023-12-29T02:00:31;1.30;;;1.20;;
37288;SDS011;23174;49.462;11.000;2023-12-29T02:02:34;1.98;;;1.30;;
37288;SDS011;23174;49.462;11.000;2023-12-29T02:04:34;1.45;;;1.15;;
37288;SDS011;23174;49.462;11.000;2023-12-29T02:06:36;2.70;;;1.50;;
37288;SDS011;23174;49.462;11.000;2023-12-29T02:08:38;1.50;;;1.40;;
37288;SDS011;23174;49.462;11.000;2023-12-29T02:10:40;2.05;;;1.70;;
37288;SDS011;23174;49.462;11.000;2023-12-29T02:12:41;1.95;;;1.67;;
37288;SDS011;23174;49.462;11.000;2023-12-29T02:14:41;1.90;;;1.30;;
37288;SDS011;23174;49.462;11.000;2023-12-29T02:19:04;1.30;;;1.20;;
37288;SDS011;23174;49.462;11.000;2023-12-29T02:21:25;3.05;;;2.03;;
37288;SDS011;23174;49.462;11.000;2023-12-29T02:23:25;1.90;;;1.10;;
37288;SDS011;23174;49.462;11.000;2023-12-29T02:25:26;1.23;;;1.13;;
37288;SDS011;23174;49.462;11.000;2023-12-29T02:29:58;1.38;;;1.20;;
37288;SDS011;23174;49.462;11.000;2023-12-29T02:32:11;2.25;;;1.30;;
37288;SDS011;23174;49.462;11.000;2023-12-29T02:34:15;1.42;;;1.33;;
37288;SDS011;23174;49.462;11.000;2023-12-29T02:36:19;1.42;;;1.33;;
37288;SDS011;23174;49.462;11.000;2023-12-29T02:38:22;1.35;;;1.25;;
37288;SDS011;23174;49.462;11.000;2023-12-29T02:40:24;1.27;;;1.17;;
37288;SDS011;23174;49.462;11.000;2023-12-29T02:42:25;1.48;;;1.38;;
37288;SDS011;23174;49.462;11.000;2023-12-29T02:44:26;1.30;;;1.20;;
37288;SDS011;23174;49.462;11.000;2023-12-29T02:46:26;2.03;;;1.30;;
37288;SDS011;23174;49.462;11.000;2023-12-29T02:48:26;2.50;;;1.20;;
37288;SDS011;23174;49.462;11.000;2023-12-29T02:50:27;2.30;;;1.30;;
37288;SDS011;23174;49.462;11.000;2023-12-29T02:52:27;0.98;;;0.98;;
37288;SDS011;23174;49.462;11.000;2023-12-29T02:54:28;3.65;;;1.40;;
37288;SDS011;23174;49.462;11.000;2023-12-29T02:56:28;3.55;;;1.50;;
37288;SDS011;23174;49.462;11.000;2023-12-29T02:58:29;1.63;;;1.30;;
37288;SDS011;23174;49.462;11.000;2023-12-29T03:00:29;1.20;;;1.10;;
37288;SDS011;23174;49.462;11.000;2023-12-29T03:02:30;1.50;;;1.40;;
37288;SDS011;23174;49.462;11.000;2023-12-29T03:04:30;1.60;;;1.50;;
37288;SDS011;23174;49.462;11.000;2023-12-29T03:06:31;1.50;;;1.40;;
37288;SDS011;23174;49.462;11.000;2023-12-29T03:08:31;1.58;;;1.48;;
37288;SDS011;23174;49.462;11.000;2023-12-29T03:10:32;2.65;;;1.40;;
37288;SDS011;23174;49.462;11.000;2023-12-29T03:12:33;1.35;;;1.25;;
37288;SDS011;23174;49.462;11.000;2023-12-29T03:14:33;1.58;;;1.48;;
37288;SDS011;23174;49.462;11.000;2023-12-29T03:16:34;1.95;;;1.85;;
37288;SDS011;23174;49.462;11.000;2023-12-29T03:18:34;2.72;;;1.70;;
37288;SDS011;23174;49.462;11.000;2023-12-29T03:20:38;1.88;;;1.50;;
37288;SDS011;23174;49.462;11.000;2023-12-29T03:22:38;1.67;;;1.33;;
37288;SDS011;23174;49.462;11.000;2023-12-29T03:24:40;3.22;;;1.58;;
37288;SDS011;23174;49.462;11.000;2023-12-29T03:26:41;2.88;;;1.70;;
37288;SDS011;23174;49.462;11.000;2023-12-29T03:28:41;3.75;;;1.52;;
37288;SDS011;23174;49.462;11.000;2023-12-29T03:30:42;1.60;;;1.50;;
37288;SDS011;23174;49.462;11.000;2023-12-29T03:32:42;1.88;;;1.77;;
37288;SDS011;23174;49.462;11.000;2023-12-29T03:34:43;2.08;;;1.88;;
37288;SDS011;23174;49.462;11.000;2023-12-29T03:36:43;1.80;;;1.70;;
37288;SDS011;23174;49.462;11.000;2023-12-29T03:38:44;2.08;;;1.65;;
37288;SDS011;23174;49.462;11.000;2023-12-29T03:40:50;2.13;;;1.85;;
37288;SDS011;23174;49.462;11.000;2023-12-29T03:42:51;2.70;;;1.80;;
37288;SDS011;23174;49.462;11.000;2023-12-29T03:44:51;3.20;;;2.03;;
37288;SDS011;23174;49.462;11.000;2023-12-29T03:46:52;1.80;;;1.70;;
37288;SDS011;23174;49.462;11.000;2023-12-29T03:48:52;2.85;;;1.90;;
37288;SDS011;23174;49.462;11.000;2023-12-29T03:50:53;1.77;;;1.67;;
37288;SDS011;23174;49.462;11.000;2023-12-29T03:52:53;2.20;;;2.00;;
37288;SDS011;23174;49.462;11.000;2023-12-29T03:54:54;2.17;;;1.70;;
37288;SDS011;23174;49.462;11.000;2023-12-29T03:56:54;2.03;;;1.90;;
37288;SDS011;23174;49.462;11.000;2023-12-29T03:58:55;1.90;;;1.80;;
37288;SDS011;23174;49.462;11.000;2023-12-29T04:00:55;1.80;;;1.70;;
37288;SDS011;23174;49.462;11.000;2023-12-29T04:02:56;2.00;;;1.90;;
37288;SDS011;23174;49.462;11.000;2023-12-29T04:04:56;2.13;;;1.90;;
37288;SDS011;23174;49.462;11.000;2023-12-29T04:06:56;1.60;;;1.50;;
37288;SDS011;23174;49.462;11.000;2023-12-29T04:08:57;2.90;;;2.00;;
37288;SDS011;23174;49.462;11.000;2023-12-29T04:10:58;2.35;;;1.92;;
37288;SDS011;23174;49.462;11.000;2023-12-29T04:12:58;2.30;;;2.20;;
37288;SDS011;23174;49.462;11.000;2023-12-29T04:14:58;2.00;;;1.90;;
37288;SDS011;23174;49.462;11.000;2023-12-29T04:16:59;2.25;;;2.00;;
37288;SDS011;23174;49.462;11.000;2023-12-29T04:19:03;2.65;;;2.08;;
37288;SDS011;23174;49.462;11.000;2023-12-29T04:21:03;3.13;;;2.05;;
37288;SDS011;23174;49.462;11.000;2023-12-29T04:23:05;2.00;;;1.90;;
37288;SDS011;23174;49.462;11.000;2023-12-29T04:25:07;2.30;;;2.10;;
37288;SDS011;23174;49.462;11.000;2023-12-29T04:27:08;1.83;;;1.73;;
37288;SDS011;23174;49.462;11.000;2023-12-29T04:29:08;2.20;;;2.00;;
37288;SDS011;23174;49.462;11.000;2023-12-29T04:31:09;2.72;;;2.30;;
37288;SDS011;23174;49.462;11.000;2023-12-29T04:33:09;2.00;;;1.90;;
37288;SDS011;23174;49.462;11.000;2023-12-29T04:35:09;2.30;;;2.10;;
37288;SDS011;23174;49.462;11.000;2023-12-29T04:37:12;2.22;;;2.10;;
37288;SDS011;23174;49.462;11.000;2023-12-29T04:39:13;2.60;;;2.20;;
37288;SDS011;23174;49.462;11.000;2023-12-29T04:41:13;2.40;;;2.20;;
37288;SDS011;23174;49.462;11.000;2023-12-29T04:43:14;2.55;;;2.35;;
37288;SDS011;23174;49.462;11.000;2023-12-29T04:45:15;2.20;;;2.10;;
37288;SDS011;23174;49.462;11.000;2023-12-29T04:47:15;2.30;;;2.10;;
37288;SDS011;23174;49.462;11.000;2023-12-29T04:49:16;2.50;;;2.28;;
37288;SDS011;23174;49.462;11.000;2023-12-29T04:51:17;2.92;;;1.92;;
37288;SDS011;23174;49.462;11.000;2023-12-29T04:53:17;2.30;;;2.10;;
37288;SDS011;23174;49.462;11.000;2023-12-29T04:55:18;2.38;;;2.00;;
37288;SDS011;23174;49.462;11.000;2023-12-29T04:57:18;2.38;;;1.85;;
37288;SDS011;23174;49.462;11.000;2023-12-29T04:59:19;2.70;;;1.83;;
37288;SDS011;23174;49.462;11.000;2023-12-29T05:01:19;1.88;;;1.77;;
37288;SDS011;23174;49.462;11.000;2023-12-29T05:03:20;2.33;;;2.03;;
37288;SDS011;23174;49.462;11.000;2023-12-29T05:05:20;2.10;;;1.90;;
37288;SDS011;23174;49.462;11.000;2023-12-29T05:07:21;1.58;;;1.48;;
37288;SDS011;23174;49.462;11.000;2023-12-29T05:09:23;2.15;;;1.80;;
37288;SDS011;23174;49.462;11.000;2023-12-29T05:11:24;1.63;;;1.48;;
37288;SDS011;23174;49.462;11.000;2023-12-29T05:13:25;1.50;;;1.40;;
37288;SDS011;23174;49.462;11.000;2023-12-29T05:15:25;1.88;;;1.67;;
37288;SDS011;23174;49.462;11.000;2023-12-29T05:17:26;2.85;;;1.70;;
37288;SDS011;23174;49.462;11.000;2023-12-29T05:19:26;1.83;;;1.60;;
37288;SDS011;23174;49.462;11.000;2023-12-29T05:21:26;2.65;;;1.60;;
37288;SDS011;23174;49.462;11.000;2023-12-29T05:23:27;1.70;;;1.60;;
37288;SDS011;23174;49.462;11.000;2023-12-29T05:25:27;3.45;;;1.83;;
37288;SDS011;23174;49.462;11.000;2023-12-29T05:27:28;2.63;;;1.80;;
37288;SDS011;23174;49.462;11.000;2023-12-29T05:29:28;3.88;;;2.13;;
37288;SDS011;23174;49.462;11.000;2023-12-29T05:31:29;5.57;;;2.47;;
37288;SDS011;23174;49.462;11.000;2023-12-29T05:33:30;1.95;;;1.83;;
37288;SDS011;23174;49.462;11.000;2023-12-29T05:35:31;2.88;;;1.80;;
37288;SDS011;23174;49.462;11.000;2023-12-29T05:37:32;1.75;;;1.60;;
37288;SDS011;23174;49.462;11.000;2023-12-29T05:39:32;1.80;;;1.70;;
37288;SDS011;23174;49.462;11.000;2023-12-29T05:41:32;2.28;;;1.90;;
37288;SDS011;23174;49.462;11.000;2023-12-29T05:43:33;1.95;;;1.85;;
37288;SDS011;23174;49.462;11.000;2023-12-29T05:45:34;1.95;;;1.85;;
37288;SDS011;23174;49.462;11.000;2023-12-29T05:47:34;2.22;;;1.90;;
37288;SDS011;23174;49.462;11.000;2023-12-29T05:49:35;2.92;;;2.00;;
37288;SDS011;23174;49.462;11.000;2023-12-29T05:51:39;1.80;;;1.70;;
37288;SDS011;23174;49.462;11.000;2023-12-29T05:53:39;2.03;;;1.80;;
37288;SDS011;23174;49.462;11.000;2023-12-29T05:55:40;1.63;;;1.52;;
37288;SDS011;23174;49.462;11.000;2023-12-29T05:57:41;1.63;;;1.52;;
37288;SDS011;23174;49.462;11.000;2023-12-29T05:59:41;1.90;;;1.70;;
37288;SDS011;23174;49.462;11.000;2023-12-29T06:01:42;1.90;;;1.80;;
37288;SDS011;23174;49.462;11.000;2023-12-29T06:03:42;1.88;;;1.77;;
37288;SDS011;23174;49.462;11.000;2023-12-29T06:05:43;2.20;;;1.90;;
37288;SDS011;23174;49.462;11.000;2023-12-29T06:07:43;2.00;;;1.77;;
37288;SDS011;23174;49.462;11.000;2023-12-29T06:09:44;2.65;;;1.70;;
37288;SDS011;23174;49.462;11.000;2023-12-29T06:11:44;2.10;;;2.00;;
37288;SDS011;23174;49.462;11.000;2023-12-29T06:13:45;2.70;;;1.90;;
37288;SDS011;23174;49.462;11.000;2023-12-29T06:15:45;4.93;;;2.20;;
37288;SDS011;23174;49.462;11.000;2023-12-29T06:17:46;2.13;;;1.92;;
37288;SDS011;23174;49.462;11.000;2023-12-29T06:19:46;2.08;;;1.77;;
37288;SDS011;23174;49.462;11.000;2023-12-29T06:21:47;3.88;;;2.30;;
37288;SDS011;23174;49.462;11.000;2023-12-29T06:23:48;2.90;;;2.10;;
37288;SDS011;23174;49.462;11.000;2023-12-29T06:25:48;2.25;;;2.05;;
37288;SDS011;23174;49.462;11.000;2023-12-29T06:27:49;4.18;;;2.25;;
37288;SDS011;23174;49.462;11.000;2023-12-29T06:29:49;3.10;;;2.20;;
37288;SDS011;23174;49.462;11.000;2023-12-29T06:31:50;2.60;;;1.85;;
37288;SDS011;23174;49.462;11.000;2023-12-29T06:33:50;2.38;;;1.92;;
37288;SDS011;23174;49.462;11.000;2023-12-29T06:35:51;2.45;;;2.25;;
37288;SDS011;23174;49.462;11.000;2023-12-29T06:37:51;2.35;;;2.15;;
37288;SDS011;23174;49.462;11.000;2023-12-29T06:39:52;2.35;;;2.15;;
37288;SDS011;23174;49.462;11.000;2023-12-29T06:41:53;2.28;;;1.88;;
37288;SDS011;23174;49.462;11.000;2023-12-29T06:43:53;2.28;;;2.10;;
37288;SDS011;23174;49.462;11.000;2023-12-29T06:45:54;2.42;;;2.20;;
37288;SDS011;23174;49.462;11.000;2023-12-29T06:47:54;3.30;;;2.25;;
37288;SDS011;23174;49.462;11.000;2023-12-29T06:49:55;3.17;;;1.90;;
37288;SDS011;23174;49.462;11.000;2023-12-29T06:51:55;3.05;;;1.80;;
37288;SDS011;23174;49.462;11.000;2023-12-29T06:53:56;2.08;;;1.98;;
37288;SDS011;23174;49.462;11.000;2023-12-29T06:55:56;2.30;;;1.90;;
37288;SDS011;23174;49.462;11.000;2023-12-29T06:57:57;2.78;;;2.00;;
37288;SDS011;23174;49.462;11.000;2023-12-29T06:59:57;2.33;;;1.77;;
37288;SDS011;23174;49.462;11.000;2023-12-29T07:01:58;1.98;;;1.88;;
37288;SDS011;23174;49.462;11.000;2023-12-29T07:03:58;2.95;;;2.28;;
37288;SDS011;23174;49.462;11.000;2023-12-29T07:06:02;4.00;;;1.70;;
37288;SDS011;23174;49.462;11.000;2023-12-29T07:08:02;4.72;;;2.10;;
37288;SDS011;23174;49.462;11.000;2023-12-29T07:10:04;1.70;;;1.60;;
37288;SDS011;23174;49.462;11.000;2023-12-29T07:12:06;2.42;;;2.05;;
37288;SDS011;23174;49.462;11.000;2023-12-29T07:14:07;1.70;;;1.60;;
37288;SDS011;23174;49.462;11.000;2023-12-29T07:16:07;2.15;;;1.70;;
37288;SDS011;23174;49.462;11.000;2023-12-29T07:18:08;1.95;;;1.70;;
37288;SDS011;23174;49.462;11.000;2023-12-29T07:20:09;1.65;;;1.55;;
37288;SDS011;23174;49.462;11.000;2023-12-29T07:22:09;2.10;;;1.90;;
37288;SDS011;23174;49.462;11.000;2023-12-29T07:24:10;3.42;;;1.80;;
37288;SDS011;23174;49.462;11.000;2023-12-29T07:26:10;2.22;;;1.70;;
37288;SDS011;23174;49.462;11.000;2023-12-29T07:28:11;4.03;;;1.77;;
37288;SDS011;23174;49.462;11.000;2023-12-29T07:30:11;2.70;;;1.70;;
37288;SDS011;23174;49.462;11.000;2023-12-29T07:32:12;3.58;;;1.40;;
37288;SDS011;23174;49.462;11.000;2023-12-29T07:34:13;1.70;;;1.60;;
37288;SDS011;23174;49.462;11.000;2023-12-29T07:36:13;2.75;;;1.48;;
37288;SDS011;23174;49.462;11.000;2023-12-29T07:38:14;1.95;;;1.33;;
37288;SDS011;23174;49.462;11.000;2023-12-29T07:40:14;1.40;;;1.30;;
37288;SDS011;23174;49.462;11.000;2023-12-29T07:42:15;1.58;;;1.10;;
37288;SDS011;23174;49.462;11.000;2023-12-29T07:44:17;1.35;;;1.25;;
37288;SDS011;23174;49.462;11.000;2023-12-29T07:46:24;2.15;;;1.30;;
37288;SDS011;23174;49.462;11.000;2023-12-29T07:48:26;1.10;;;1.00;;
37288;SDS011;23174;49.462;11.000;2023-12-29T07:50:26;1.02;;;0.90;;
37288;SDS011;23174;49.462;11.000;2023-12-29T07:52:27;0.98;;;0.98;;
37288;SDS011;23174;49.462;11.000;2023-12-29T07:54:27;1.73;;;1.00;;
37288;SDS011;23174;49.462;11.000;2023-12-29T07:56:28;2.05;;;1.08;;
37288;SDS011;23174;49.462;11.000;2023-12-29T07:58:28;2.25;;;1.23;;
37288;SDS011;23174;49.462;11.000;2023-12-29T08:00:29;1.20;;;1.10;;
37288;SDS011;23174;49.462;11.000;2023-12-29T08:02:29;1.23;;;0.90;;
37288;SDS011;23174;49.462;11.000;2023-12-29T08:04:30;1.02;;;1.02;;
37288;SDS011;23174;49.462;11.000;2023-12-29T08:06:31;0.95;;;0.95;;
37288;SDS011;23174;49.462;11.000;2023-12-29T08:08:31;0.82;;;0.82;;
37288;SDS011;23174;49.462;11.000;2023-12-29T08:10:32;1.20;;;1.10;;
37288;SDS011;23174;49.462;11.000;2023-12-29T08:12:33;1.02;;;1.02;;
37288;SDS011;23174;49.462;11.000;2023-12-29T08:14:33;1.40;;;1.30;;
37288;SDS011;23174;49.462;11.000;2023-12-29T08:16:38;0.90;;;0.90;;
37288;SDS011;23174;49.462;11.000;2023-12-29T08:18:40;0.98;;;0.95;;
37288;SDS011;23174;49.462;11.000;2023-12-29T08:20:40;1.25;;;1.15;;
37288;SDS011;23174;49.462;11.000;2023-12-29T08:22:41;0.90;;;0.90;;
37288;SDS011;23174;49.462;11.000;2023-12-29T08:24:41;1.15;;;1.05;;
37288;SDS011;23174;49.462;11.000;2023-12-29T08:26:45;0.90;;;0.90;;
37288;SDS011;23174;49.462;11.000;2023-12-29T08:28:47;1.02;;;1.00;;
37288;SDS011;23174;49.462;11.000;2023-12-29T08:30:47;0.70;;;0.70;;
37288;SDS011;23174;49.462;11.000;2023-12-29T08:32:47;0.90;;;0.90;;
37288;SDS011;23174;49.462;11.000;2023-12-29T08:34:48;0.60;;;0.60;;
37288;SDS011;23174;49.462;11.000;2023-12-29T08:36:48;1.25;;;0.80;;
37288;SDS011;23174;49.462;11.000;2023-12-29T08:38:49;0.70;;;0.70;;
37288;SDS011;23174;49.462;11.000;2023-12-29T08:40:50;0.50;;;0.50;;
37288;SDS011;23174;49.462;11.000;2023-12-29T08:42:50;0.70;;;0.70;;
37288;SDS011;23174;49.462;11.000;2023-12-29T08:44:51;0.70;;;0.70;;
37288;SDS011;23174;49.462;11.000;2023-12-29T08:46:51;1.13;;;0.80;;
37288;SDS011;23174;49.462;11.000;2023-12-29T08:48:52;0.75;;;0.75;;
37288;SDS011;23174;49.462;11.000;2023-12-29T08:50:53;0.57;;;0.57;;
37288;SDS011;23174;49.462;11.000;2023-12-29T08:52:53;0.40;;;0.40;;
37288;SDS011;23174;49.462;11.000;2023-12-29T08:54:54;0.57;;;0.57;;
37288;SDS011;23174;49.462;11.000;2023-12-29T08:56:54;0.65;;;0.65;;
37288;SDS011;23174;49.462;11.000;2023-12-29T08:58:55;0.60;;;0.60;;
37288;SDS011;23174;49.462;11.000;2023-12-29T09:00:55;0.77;;;0.77;;
37288;SDS011;23174;49.462;11.000;2023-12-29T09:02:56;0.50;;;0.50;;
37288;SDS011;23174;49.462;11.000;2023-12-29T09:04:57;0.60;;;0.60;;
37288;SDS011;23174;49.462;11.000;2023-12-29T09:06:57;0.60;;;0.60;;
37288;SDS011;23174;49.462;11.000;2023-12-29T09:08:58;0.73;;;0.73;;
37288;SDS011;23174;49.462;11.000;2023-12-29T09:10:58;0.70;;;0.70;;
37288;SDS011;23174;49.462;11.000;2023-12-29T09:12:59;0.80;;;0.80;;
37288;SDS011;23174;49.462;11.000;2023-12-29T09:14:59;0.60;;;0.60;;
37288;SDS011;23174;49.462;11.000;2023-12-29T09:17:00;0.70;;;0.60;;
37288;SDS011;23174;49.462;11.000;2023-12-29T09:19:01;1.05;;;0.73;;
37288;SDS011;23174;49.462;11.000;2023-12-29T09:21:01;0.80;;;0.80;;
37288;SDS011;23174;49.462;11.000;2023-12-29T09:23:02;0.60;;;0.60;;
37288;SDS011;23174;49.462;11.000;2023-12-29T09:25:03;1.08;;;0.65;;
37288;SDS011;23174;49.462;11.000;2023-12-29T09:27:04;2.55;;;0.85;;
37288;SDS011;23174;49.462;11.000;2023-12-29T09:29:05;0.73;;;0.45;;
37288;SDS011;23174;49.462;11.000;2023-12-29T09:31:05;0.75;;;0.57;;
37288;SDS011;23174;49.462;11.000;2023-12-29T09:33:06;0.60;;;0.60;;
37288;SDS011;23174;49.462;11.000;2023-12-29T09:35:07;1.85;;;0.50;;
37288;SDS011;23174;49.462;11.000;2023-12-29T09:37:08;0.57;;;0.47;;
37288;SDS011;23174;49.462;11.000;2023-12-29T09:39:08;0.55;;;0.55;;
37288;SDS011;23174;49.462;11.000;2023-12-29T09:41:11;2.47;;;0.57;;
37288;SDS011;23174;49.462;11.000;2023-12-29T09:43:14;0.50;;;0.50;;
37288;SDS011;23174;49.462;11.000;2023-12-29T09:45:15;0.60;;;0.60;;
37288;SDS011;23174;49.462;11.000;2023-12-29T09:47:23;1.30;;;0.55;;
37288;SDS011;23174;49.462;11.000;2023-12-29T09:49:27;0.80;;;0.80;;
37288;SDS011;23174;49.462;11.000;2023-12-29T09:51:36;1.10;;;0.70;;
37288;SDS011;23174;49.462;11.000;2023-12-29T09:53:37;0.80;;;0.57;;
37288;SDS011;23174;49.462;11.000;2023-12-29T09:55:40;0.73;;;0.70;;
37288;SDS011;23174;49.462;11.000;2023-12-29T09:57:41;1.20;;;0.57;;
37288;SDS011;23174;49.462;11.000;2023-12-29T09:59:42;1.25;;;0.80;;
37288;SDS011;23174;49.462;11.000;2023-12-29T10:01:44;0.80;;;0.80;;
37288;SDS011;23174;49.462;11.000;2023-12-29T10:03:46;1.52;;;0.90;;
37288;SDS011;23174;49.462;11.000;2023-12-29T10:05:49;0.85;;;0.60;;
37288;SDS011;23174;49.462;11.000;2023-12-29T10:07:54;1.60;;;0.80;;
